createdAt,value
2019-03-09T00:01:04.975Z,5.00
2019-03-09T00:06:09.228Z,5.00
2019-03-09T00:11:13.562Z,4.60
2019-03-09T00:16:17.790Z,4.25
2019-03-09T00:21:22.341Z,4.20
2019-03-09T00:26:31.624Z,3.60
2019-03-09T00:31:41.672Z,4.20
2019-03-09T00:36:45.871Z,4.20
2019-03-09T00:41:50.356Z,4.00
2019-03-09T00:46:54.524Z,3.80
2019-03-09T00:51:59.254Z,3.60
2019-03-09T00:57:03.494Z,3.30
2019-03-09T01:02:07.678Z,3.25
2019-03-09T01:07:11.865Z,3.37
2019-03-09T01:12:16.254Z,3.03
2019-03-09T01:17:20.431Z,3.07
2019-03-09T01:22:24.623Z,2.93
2019-03-09T01:27:28.831Z,3.60
2019-03-09T01:32:33.090Z,3.53
2019-03-09T01:37:37.396Z,3.50
2019-03-09T01:42:41.605Z,3.47
2019-03-09T01:47:45.796Z,3.07
2019-03-09T01:52:50.042Z,3.40
2019-03-09T01:57:54.227Z,3.37
2019-03-09T02:02:58.395Z,3.03
2019-03-09T02:08:02.583Z,3.13
2019-03-09T02:13:06.779Z,3.40
2019-03-09T02:18:11.062Z,3.53
2019-03-09T02:23:15.227Z,3.80
2019-03-09T02:28:19.394Z,3.60
2019-03-09T02:33:23.605Z,3.77
2019-03-09T02:38:46.829Z,3.57
2019-03-09T02:43:51.175Z,3.77
2019-03-09T02:48:55.401Z,3.80
2019-03-09T02:53:59.566Z,3.60
2019-03-09T02:59:03.751Z,3.20
2019-03-09T03:04:07.922Z,4.23
2019-03-09T03:09:12.373Z,3.80
2019-03-09T03:14:16.548Z,4.00
2019-03-09T03:19:20.728Z,4.40
2019-03-09T03:24:24.909Z,3.93
2019-03-09T03:29:29.146Z,4.37
2019-03-09T03:34:33.359Z,4.07
2019-03-09T03:39:37.564Z,4.30
2019-03-09T03:44:47.539Z,3.67
2019-03-09T03:49:51.780Z,3.27
2019-03-09T03:54:55.973Z,4.00
2019-03-09T04:00:00.359Z,3.50
2019-03-09T04:05:05.878Z,3.00
2019-03-09T04:10:10.388Z,3.37
2019-03-09T04:15:14.631Z,3.20
2019-03-09T04:20:18.818Z,2.67
2019-03-09T04:25:23.027Z,2.10
2019-03-09T04:30:27.283Z,2.23
2019-03-09T04:35:31.462Z,1.83
2019-03-09T04:40:35.678Z,2.37
2019-03-09T04:45:39.826Z,1.80
2019-03-09T04:50:43.990Z,1.97
2019-03-09T04:55:48.144Z,1.60
2019-03-09T05:00:52.342Z,1.73
2019-03-09T05:05:56.493Z,1.70
2019-03-09T05:11:04.306Z,1.77
2019-03-09T05:16:08.486Z,1.50
2019-03-09T05:21:12.646Z,1.60
2019-03-09T05:26:16.818Z,1.50
2019-03-09T05:31:21.011Z,1.60
2019-03-09T05:36:25.171Z,1.70
2019-03-09T05:41:29.351Z,1.40
2019-03-09T05:46:33.534Z,1.60
2019-03-09T05:51:37.710Z,1.63
2019-03-09T05:56:41.909Z,1.90
2019-03-09T06:01:46.160Z,1.77
2019-03-09T06:06:50.328Z,1.87
2019-03-09T06:11:54.515Z,1.80
2019-03-09T06:16:58.716Z,1.90
2019-03-09T06:22:02.892Z,1.67
2019-03-09T06:27:07.101Z,2.00
2019-03-09T06:32:47.143Z,1.80
2019-03-09T06:37:59.079Z,2.20
2019-03-09T06:43:03.267Z,2.20
2019-03-09T06:48:07.457Z,1.92
2019-03-09T06:53:11.668Z,2.00
2019-03-09T06:58:15.891Z,2.20
2019-03-09T07:03:20.185Z,1.85
2019-03-09T07:08:24.347Z,2.00
2019-03-09T07:13:28.626Z,1.75
2019-03-09T07:18:36.742Z,1.70
2019-03-09T07:23:40.933Z,2.02
2019-03-09T07:28:45.293Z,1.80
2019-03-09T07:34:06.203Z,1.67
2019-03-09T07:39:09.935Z,1.80
2019-03-09T07:44:14.193Z,2.10
2019-03-09T07:49:18.402Z,1.75
2019-03-09T07:54:22.620Z,1.77
2019-03-09T07:59:26.807Z,2.50
2019-03-09T08:04:31.060Z,2.27
2019-03-09T08:09:35.257Z,1.85
2019-03-09T08:14:39.647Z,2.20
2019-03-09T08:19:43.820Z,1.70
2019-03-09T08:24:48.004Z,1.90
2019-03-09T08:29:52.260Z,2.27
2019-03-09T08:34:56.518Z,2.67
2019-03-09T08:40:00.846Z,2.22
2019-03-09T08:45:09.113Z,2.30
2019-03-09T08:50:16.614Z,2.50
2019-03-09T08:55:20.888Z,2.50
2019-03-09T09:00:30.274Z,2.65
2019-03-09T09:05:34.612Z,2.30
2019-03-09T09:10:38.983Z,2.67
2019-03-09T09:15:43.275Z,2.87
2019-03-09T09:20:47.543Z,2.87
2019-03-09T09:25:51.748Z,2.70
2019-03-09T09:30:56.108Z,2.77
2019-03-09T09:36:00.445Z,2.90
2019-03-09T09:41:04.794Z,2.83
2019-03-09T09:46:08.980Z,2.85
2019-03-09T09:51:13.194Z,2.90
2019-03-09T09:56:17.399Z,2.15
2019-03-09T10:01:21.603Z,2.20
2019-03-09T10:06:25.867Z,2.80
2019-03-09T10:11:30.131Z,2.67
2019-03-09T10:16:33.873Z,2.50
2019-03-09T10:21:37.611Z,2.72
2019-03-09T10:26:41.331Z,3.02
2019-03-09T10:31:45.545Z,2.92
2019-03-09T10:36:49.829Z,2.87
2019-03-09T10:41:54.037Z,2.67
2019-03-09T10:46:58.230Z,2.83
2019-03-09T10:52:02.509Z,2.83
2019-03-09T10:57:06.716Z,3.08
2019-03-09T11:02:10.979Z,3.52
2019-03-09T11:07:15.296Z,3.98
2019-03-09T11:12:19.517Z,3.08
2019-03-09T11:17:23.770Z,3.00
2019-03-09T11:22:27.955Z,3.10
2019-03-09T11:27:32.147Z,2.80
2019-03-09T11:32:36.375Z,2.90
2019-03-09T11:37:40.638Z,3.50
2019-03-09T11:42:44.915Z,3.30
2019-03-09T11:47:49.098Z,3.70
2019-03-09T11:52:53.657Z,3.58
2019-03-09T11:57:57.891Z,3.40
2019-03-09T12:03:02.163Z,3.80
2019-03-09T12:08:06.443Z,3.67
2019-03-09T12:13:10.037Z,3.65
2019-03-09T12:18:13.746Z,3.67
2019-03-09T12:23:18.894Z,4.50
2019-03-09T12:28:22.617Z,4.65
2019-03-09T12:33:26.334Z,5.08
2019-03-09T12:38:30.220Z,5.12
2019-03-09T12:43:33.872Z,5.85
2019-03-09T12:48:37.528Z,5.33
2019-03-09T12:53:41.155Z,6.00
2019-03-09T12:58:46.229Z,5.67
2019-03-09T13:03:50.176Z,5.17
2019-03-09T13:08:53.848Z,4.83
2019-03-09T13:13:58.043Z,5.37
2019-03-09T13:19:03.340Z,4.42
2019-03-09T13:24:07.666Z,3.98
2019-03-09T13:29:11.874Z,3.62
2019-03-09T13:34:16.094Z,3.75
2019-03-09T13:39:20.302Z,3.92
2019-03-09T13:44:24.496Z,3.85
2019-03-09T13:49:28.700Z,4.90
2019-03-09T13:54:32.938Z,3.40
2019-03-09T13:59:37.251Z,3.80
2019-03-09T14:04:41.501Z,4.95
2019-03-09T14:09:45.745Z,4.60
2019-03-09T14:14:50.009Z,4.53
2019-03-09T14:19:54.381Z,4.22
2019-03-09T14:24:58.639Z,4.45
2019-03-09T14:30:02.935Z,4.87
2019-03-09T14:35:08.727Z,4.67
2019-03-09T14:40:13.391Z,4.92
2019-03-09T14:45:18.950Z,5.05
2019-03-09T14:50:23.168Z,5.72
2019-03-09T14:55:27.359Z,6.65
2019-03-09T15:00:31.597Z,6.95
2019-03-09T15:05:35.798Z,7.37
2019-03-09T15:10:40.013Z,5.97
2019-03-09T15:15:44.236Z,7.37
2019-03-09T15:20:48.731Z,7.90
2019-03-09T15:25:53.029Z,2.65
2019-03-09T15:30:57.455Z,4.17
2019-03-09T15:36:01.737Z,3.87
2019-03-09T15:41:06.057Z,3.10
2019-03-09T15:46:10.321Z,2.08
2019-03-09T15:51:14.508Z,2.10
2019-03-09T15:56:18.773Z,2.67
2019-03-09T16:01:23.157Z,2.17
2019-03-09T16:06:27.670Z,2.65
2019-03-09T16:11:31.873Z,3.42
2019-03-09T16:16:36.140Z,3.25
2019-03-09T16:21:40.372Z,2.90
2019-03-09T16:26:44.611Z,2.12
2019-03-09T16:31:48.874Z,2.40
2019-03-09T16:36:53.137Z,2.47
2019-03-09T16:41:57.370Z,2.45
2019-03-09T16:47:01.669Z,2.63
2019-03-09T16:52:27.936Z,2.10
2019-03-09T16:57:32.150Z,1.20
2019-03-09T17:02:36.349Z,1.13
2019-03-09T17:07:41.506Z,0.60
2019-03-09T17:12:45.674Z,0.80
2019-03-09T17:17:49.866Z,0.70
2019-03-09T17:22:54.056Z,0.93
2019-03-09T17:27:58.293Z,0.80
2019-03-09T17:33:02.614Z,1.17
2019-03-09T17:38:06.831Z,1.20
2019-03-09T17:43:11.150Z,1.13
2019-03-09T17:48:15.332Z,0.80
2019-03-09T17:53:21.438Z,0.90
2019-03-09T17:58:25.511Z,0.90
2019-03-09T18:03:29.778Z,1.40
2019-03-09T18:08:33.968Z,0.90
2019-03-09T18:13:38.149Z,1.27
2019-03-09T18:18:42.339Z,1.00
2019-03-09T18:23:46.571Z,0.90
2019-03-09T18:28:53.734Z,0.60
2019-03-09T18:33:57.927Z,0.90
2019-03-09T18:39:02.124Z,0.67
2019-03-09T18:44:06.380Z,0.70
2019-03-09T18:49:10.619Z,1.47
2019-03-09T18:54:14.823Z,0.77
2019-03-09T18:59:19.026Z,0.97
2019-03-09T19:04:23.281Z,1.10
2019-03-09T19:09:27.459Z,1.10
2019-03-09T19:14:31.654Z,1.33
2019-03-09T19:19:37.212Z,1.30
2019-03-09T19:24:41.502Z,1.33
2019-03-09T19:29:45.734Z,1.10
2019-03-09T19:34:49.953Z,0.83
2019-03-09T19:39:54.124Z,1.40
2019-03-09T19:44:59.856Z,1.10
2019-03-09T19:50:04.369Z,1.47
2019-03-09T19:55:09.624Z,1.60
2019-03-09T20:00:15.816Z,1.60
2019-03-09T20:05:20.101Z,1.70
2019-03-09T20:10:24.400Z,1.40
2019-03-09T20:15:28.676Z,1.23
2019-03-09T20:20:32.869Z,1.00
2019-03-09T20:25:37.101Z,1.53
2019-03-09T20:30:41.392Z,1.57
2019-03-09T20:35:45.681Z,1.53
2019-03-09T20:40:49.911Z,1.43
2019-03-09T20:45:54.612Z,1.20
2019-03-09T20:50:58.791Z,1.23
2019-03-09T20:56:03.066Z,1.30
2019-03-09T21:01:07.328Z,1.17
2019-03-09T21:06:11.513Z,1.30
2019-03-09T21:11:15.820Z,1.43
2019-03-09T21:16:20.012Z,1.57
2019-03-09T21:21:24.242Z,1.73
2019-03-09T21:26:28.461Z,1.40
2019-03-09T21:31:32.712Z,1.03
2019-03-09T21:36:36.933Z,1.93
2019-03-09T21:41:41.237Z,1.77
2019-03-09T21:46:45.482Z,1.40
2019-03-09T21:51:49.700Z,1.43
2019-03-09T21:56:53.888Z,1.17
2019-03-09T22:01:58.117Z,1.93
2019-03-09T22:07:02.392Z,1.60
2019-03-09T22:12:06.586Z,1.90
2019-03-09T22:17:10.826Z,1.53
2019-03-09T22:22:15.037Z,1.57
2019-03-09T22:27:19.266Z,1.50
2019-03-09T22:32:23.564Z,1.30
2019-03-09T22:37:27.747Z,1.23
2019-03-09T22:42:32.027Z,1.60
2019-03-09T22:47:36.214Z,1.70
2019-03-09T22:52:40.457Z,1.83
2019-03-09T22:57:47.146Z,1.90
2019-03-09T23:02:51.379Z,3.37
2019-03-09T23:08:38.454Z,2.00
2019-03-09T23:13:43.665Z,1.43
2019-03-09T23:18:47.893Z,1.83
2019-03-09T23:23:52.074Z,1.97
2019-03-09T23:28:56.293Z,2.50
2019-03-09T23:34:00.467Z,2.53
2019-03-09T23:39:06.964Z,2.30
2019-03-09T23:44:11.153Z,2.07
2019-03-09T23:49:15.330Z,2.43
2019-03-09T23:54:19.500Z,2.20
2019-03-09T23:59:23.674Z,2.50
